الصفحة الرئيسية
METAR-TAF:

METAR-TAF

مطار :

مطار فاس سايس الدولي

فاس, المغرب

دائرة عرض: 33-56N, خط طول: 004-59W, ارتفاع: 579 متر

مراقبة الطقس الحالي

تاريخ ووقت الإصدار 34 دقيقة قبل الساعة 09:00UTC
ريح 9 عقدة من الشمال الشرقي, الاتجاه يتراوح بين الشمال و الشرق
درجة الحرارة 28°درجة مئوية
الرطوبة 35%
ضغط 1020 hPa
الرؤية 10 كم أو أكثر
الغيوم لا تقل 1500 م ولا وجود لمزنة ركامية السحاب الأسود

METAR: GMFF 040900Z 04009KT 360V080 CAVOK 28/11 Q1020 NOSIG

زمن: 10:34 (09:34 UTC)

توقعات

تاريخ ووقت الإصدار 4ساعات و 34 دقيقة قبل الساعة 05:00UTC
التوقعات صالحة من04 الساعة 06 UTC إلى 05 الساعة 12 UTC
ريح 6 عقدة من الجنوب
الرؤية 10 كم أو أكثر
الغيوم لا تقل 1500 م ولا وجود لمزنة ركامية السحاب الأسود

TAF: GMFF 040500Z 0406/0512 18006KT CAVOK

أرصاد الطقس والتوقعات من أكثر من 4000 مطار (تقارير الطقس للمطار METAR والتنبؤ بالطقس بالمطارTAF).

المحطات المتاحة هي النقط الصفراء والحمراء على الخريطة.

حرك المؤشر فوق النقطة لمعرفة اسم المحطة.

ثم انقر لمعرفة أرصاد وتوقعات الطقس.

لتغيير الخارطة: اضغط على الأزرار الخضراء مع رمز الصليب الأسود للتكبير. على الزر الأخضر مع شرطة للتصغير، أو على الأسهم الخضراء للخرائط المجاورة.


METAR-TAF: